sensor_id;sensor_type;location;lat;lon;timestamp;pressure;altitude;pressure_sealevel;temperature;humidity
22572;BME280;11452;53.368;14.658;2022-11-15T00:02:57;101060.53;;;9.00;80.30
22572;BME280;11452;53.368;14.658;2022-11-15T00:08:21;101051.66;;;9.00;80.56
22572;BME280;11452;53.368;14.658;2022-11-15T00:13:45;101056.12;;;8.99;80.84
22572;BME280;11452;53.368;14.658;2022-11-15T00:19:09;101051.27;;;8.99;80.85
22572;BME280;11452;53.368;14.658;2022-11-15T00:24:32;101043.27;;;8.99;80.75
22572;BME280;11452;53.368;14.658;2022-11-15T00:29:55;101052.97;;;9.10;80.94
22572;BME280;11452;53.368;14.658;2022-11-15T00:35:20;101039.10;;;9.12;80.83
22572;BME280;11452;53.368;14.658;2022-11-15T00:40:43;101033.56;;;9.17;80.62
22572;BME280;11452;53.368;14.658;2022-11-15T00:46:07;101027.47;;;9.05;80.43
22572;BME280;11452;53.368;14.658;2022-11-15T00:51:31;101030.80;;;8.99;80.16
22572;BME280;11452;53.368;14.658;2022-11-15T00:56:55;101022.47;;;9.07;80.84
22572;BME280;11452;53.368;14.658;2022-11-15T01:02:18;101018.97;;;9.15;81.07
22572;BME280;11452;53.368;14.658;2022-11-15T01:07:42;101011.03;;;9.24;80.70
22572;BME280;11452;53.368;14.658;2022-11-15T01:13:05;101004.90;;;9.22;80.69
22572;BME280;11452;53.368;14.658;2022-11-15T01:18:29;101007.92;;;9.33;80.99
22572;BME280;11452;53.368;14.658;2022-11-15T01:23:56;100997.84;;;9.40;80.86
22572;BME280;11452;53.368;14.658;2022-11-15T01:29:20;100995.64;;;9.39;80.75
22572;BME280;11452;53.368;14.658;2022-11-15T01:34:44;100984.03;;;9.40;80.64
22572;BME280;11452;53.368;14.658;2022-11-15T01:40:08;100980.31;;;9.34;80.32
22572;BME280;11452;53.368;14.658;2022-11-15T01:45:32;100961.42;;;9.38;80.53
22572;BME280;11452;53.368;14.658;2022-11-15T01:50:56;100965.55;;;9.46;80.48
22572;BME280;11452;53.368;14.658;2022-11-15T01:56:25;100960.44;;;9.31;79.59
22572;BME280;11452;53.368;14.658;2022-11-15T02:01:49;100953.23;;;9.33;79.82
22572;BME280;11452;53.368;14.658;2022-11-15T02:07:15;100945.89;;;9.38;80.29
22572;BME280;11452;53.368;14.658;2022-11-15T02:12:41;100938.61;;;9.42;80.44
22572;BME280;11452;53.368;14.658;2022-11-15T02:35:00;100930.09;;;9.33;80.16
22572;BME280;11452;53.368;14.658;2022-11-15T02:45:56;100933.38;;;9.30;79.94
22572;BME280;11452;53.368;14.658;2022-11-15T02:51:19;100927.15;;;9.40;80.09
22572;BME280;11452;53.368;14.658;2022-11-15T02:56:45;100922.34;;;9.37;79.89
22572;BME280;11452;53.368;14.658;2022-11-15T03:08:00;100913.95;;;9.36;79.90
22572;BME280;11452;53.368;14.658;2022-11-15T03:24:46;100912.22;;;9.35;79.75
22572;BME280;11452;53.368;14.658;2022-11-15T03:30:11;100903.20;;;9.38;79.76
22572;BME280;11452;53.368;14.658;2022-11-15T03:35:39;100877.29;;;9.23;79.46
22572;BME280;11452;53.368;14.658;2022-11-15T03:41:05;100884.97;;;9.29;79.24
22572;BME280;11452;53.368;14.658;2022-11-15T03:46:44;100887.48;;;9.23;79.51
22572;BME280;11452;53.368;14.658;2022-11-15T03:52:05;100890.77;;;9.20;79.71
22572;BME280;11452;53.368;14.658;2022-11-15T03:57:28;100898.16;;;9.23;79.38
22572;BME280;11452;53.368;14.658;2022-11-15T04:02:52;100890.70;;;9.21;79.59
22572;BME280;11452;53.368;14.658;2022-11-15T04:08:16;100884.82;;;9.23;79.47
22572;BME280;11452;53.368;14.658;2022-11-15T04:13:39;100887.16;;;9.21;79.14
22572;BME280;11452;53.368;14.658;2022-11-15T04:19:02;100885.44;;;9.20;79.59
22572;BME280;11452;53.368;14.658;2022-11-15T04:24:44;100887.56;;;9.22;79.43
22572;BME280;11452;53.368;14.658;2022-11-15T04:30:08;100887.30;;;9.18;79.26
22572;BME280;11452;53.368;14.658;2022-11-15T04:35:32;100879.16;;;9.21;79.35
22572;BME280;11452;53.368;14.658;2022-11-15T04:40:55;100881.69;;;9.24;79.31
22572;BME280;11452;53.368;14.658;2022-11-15T04:46:19;100882.55;;;9.24;79.18
22572;BME280;11452;53.368;14.658;2022-11-15T04:51:42;100873.90;;;9.19;78.72
22572;BME280;11452;53.368;14.658;2022-11-15T04:57:07;100875.13;;;9.12;78.65
22572;BME280;11452;53.368;14.658;2022-11-15T05:02:30;100875.11;;;9.03;78.58
22572;BME280;11452;53.368;14.658;2022-11-15T05:07:56;100868.66;;;8.99;78.94
22572;BME280;11452;53.368;14.658;2022-11-15T05:13:20;100869.31;;;9.04;78.78
22572;BME280;11452;53.368;14.658;2022-11-15T05:18:43;100864.91;;;9.03;78.75
22572;BME280;11452;53.368;14.658;2022-11-15T05:24:09;100858.91;;;9.08;79.19
22572;BME280;11452;53.368;14.658;2022-11-15T05:29:32;100860.63;;;9.09;78.65
22572;BME280;11452;53.368;14.658;2022-11-15T05:34:55;100860.19;;;8.99;78.96
22572;BME280;11452;53.368;14.658;2022-11-15T05:40:19;100856.05;;;9.02;78.53
22572;BME280;11452;53.368;14.658;2022-11-15T05:45:42;100853.71;;;9.05;79.18
22572;BME280;11452;53.368;14.658;2022-11-15T05:51:07;100858.80;;;9.10;78.92
22572;BME280;11452;53.368;14.658;2022-11-15T05:56:31;100858.50;;;9.07;78.85
22572;BME280;11452;53.368;14.658;2022-11-15T06:01:55;100864.63;;;9.09;78.81
22572;BME280;11452;53.368;14.658;2022-11-15T06:07:19;100858.11;;;9.06;78.74
22572;BME280;11452;53.368;14.658;2022-11-15T06:12:43;100861.72;;;9.14;79.32
22572;BME280;11452;53.368;14.658;2022-11-15T06:18:06;100863.09;;;9.22;78.86
22572;BME280;11452;53.368;14.658;2022-11-15T06:23:34;100867.77;;;9.17;78.80
22572;BME280;11452;53.368;14.658;2022-11-15T06:28:58;100863.38;;;9.16;78.54
22572;BME280;11452;53.368;14.658;2022-11-15T06:34:22;100859.40;;;8.97;78.19
22572;BME280;11452;53.368;14.658;2022-11-15T06:39:45;100867.84;;;9.07;78.47
22572;BME280;11452;53.368;14.658;2022-11-15T06:45:09;100871.30;;;9.09;78.42
22572;BME280;11452;53.368;14.658;2022-11-15T06:50:32;100865.56;;;9.08;78.27
22572;BME280;11452;53.368;14.658;2022-11-15T06:56:00;100874.72;;;9.02;78.25
22572;BME280;11452;53.368;14.658;2022-11-15T07:01:24;100875.72;;;9.00;78.14
22572;BME280;11452;53.368;14.658;2022-11-15T07:06:48;100877.78;;;9.03;78.39
22572;BME280;11452;53.368;14.658;2022-11-15T07:12:11;100869.97;;;9.09;78.52
22572;BME280;11452;53.368;14.658;2022-11-15T07:17:35;100874.31;;;9.01;77.84
22572;BME280;11452;53.368;14.658;2022-11-15T07:23:02;100876.05;;;9.11;78.44
22572;BME280;11452;53.368;14.658;2022-11-15T07:28:26;100882.11;;;9.15;78.17
22572;BME280;11452;53.368;14.658;2022-11-15T07:33:50;100896.85;;;9.13;77.99
22572;BME280;11452;53.368;14.658;2022-11-15T07:39:13;100889.50;;;9.18;78.28
22572;BME280;11452;53.368;14.658;2022-11-15T07:44:37;100887.09;;;9.22;78.21
22572;BME280;11452;53.368;14.658;2022-11-15T07:50:00;100894.58;;;9.14;77.26
22572;BME280;11452;53.368;14.658;2022-11-15T07:55:25;100900.50;;;9.21;78.22
22572;BME280;11452;53.368;14.658;2022-11-15T08:00:51;100904.58;;;9.28;78.11
22572;BME280;11452;53.368;14.658;2022-11-15T08:06:14;100904.55;;;9.38;77.81
22572;BME280;11452;53.368;14.658;2022-11-15T08:11:38;100905.41;;;9.38;77.84
22572;BME280;11452;53.368;14.658;2022-11-15T08:17:01;100902.67;;;9.49;77.90
22572;BME280;11452;53.368;14.658;2022-11-15T08:22:24;100904.19;;;9.54;77.48
22572;BME280;11452;53.368;14.658;2022-11-15T08:27:50;100896.42;;;9.58;77.49
22572;BME280;11452;53.368;14.658;2022-11-15T08:33:14;100901.37;;;9.66;77.48
22572;BME280;11452;53.368;14.658;2022-11-15T08:38:37;100894.22;;;9.66;77.19
22572;BME280;11452;53.368;14.658;2022-11-15T08:44:01;100892.74;;;9.69;77.00
22572;BME280;11452;53.368;14.658;2022-11-15T08:49:24;100894.89;;;9.80;77.32
22572;BME280;11452;53.368;14.658;2022-11-15T08:54:47;100892.60;;;9.90;77.01
22572;BME280;11452;53.368;14.658;2022-11-15T09:00:13;100887.03;;;9.94;76.96
22572;BME280;11452;53.368;14.658;2022-11-15T09:05:36;100892.07;;;10.00;76.98
22572;BME280;11452;53.368;14.658;2022-11-15T09:11:05;100891.58;;;10.10;76.71
22572;BME280;11452;53.368;14.658;2022-11-15T09:16:30;100878.08;;;10.21;76.74
22572;BME280;11452;53.368;14.658;2022-11-15T09:21:54;100874.30;;;10.17;76.21
22572;BME280;11452;53.368;14.658;2022-11-15T09:27:18;100869.36;;;10.18;76.48
22572;BME280;11452;53.368;14.658;2022-11-15T09:32:41;100864.88;;;10.27;76.18
22572;BME280;11452;53.368;14.658;2022-11-15T09:38:05;100874.23;;;10.35;76.01
22572;BME280;11452;53.368;14.658;2022-11-15T09:49:16;100872.62;;;10.49;76.65
22572;BME280;11452;53.368;14.658;2022-11-15T09:54:38;100878.75;;;10.42;74.93
22572;BME280;11452;53.368;14.658;2022-11-15T09:59:59;100870.41;;;10.57;75.76
22572;BME280;11452;53.368;14.658;2022-11-15T10:05:16;100866.52;;;10.62;75.28
22572;BME280;11452;53.368;14.658;2022-11-15T10:15:36;100876.36;;;10.86;75.49
22572;BME280;11452;53.368;14.658;2022-11-15T10:20:54;100858.11;;;10.86;75.16
22572;BME280;11452;53.368;14.658;2022-11-15T10:26:00;100855.22;;;10.97;74.90
22572;BME280;11452;53.368;14.658;2022-11-15T10:31:25;100857.64;;;11.02;74.55
22572;BME280;11452;53.368;14.658;2022-11-15T10:36:32;100849.50;;;11.12;74.74
22572;BME280;11452;53.368;14.658;2022-11-15T10:41:40;100849.57;;;11.26;74.77
22572;BME280;11452;53.368;14.658;2022-11-15T10:46:49;100837.14;;;11.25;74.23
22572;BME280;11452;53.368;14.658;2022-11-15T10:52:00;100835.30;;;11.41;74.43
22572;BME280;11452;53.368;14.658;2022-11-15T10:57:17;100831.03;;;11.46;73.91
22572;BME280;11452;53.368;14.658;2022-11-15T11:02:35;100830.47;;;11.55;73.69
22572;BME280;11452;53.368;14.658;2022-11-15T11:07:43;100840.05;;;11.59;73.17
22572;BME280;11452;53.368;14.658;2022-11-15T11:12:48;100828.01;;;11.59;72.73
22572;BME280;11452;53.368;14.658;2022-11-15T11:18:21;100820.45;;;11.59;72.58
22572;BME280;11452;53.368;14.658;2022-11-15T11:23:31;100817.95;;;11.56;72.65
22572;BME280;11452;53.368;14.658;2022-11-15T11:28:39;100808.37;;;11.52;72.62
22572;BME280;11452;53.368;14.658;2022-11-15T11:34:04;100802.19;;;11.58;72.35
22572;BME280;11452;53.368;14.658;2022-11-15T11:44:56;100795.20;;;11.26;71.42
22572;BME280;11452;53.368;14.658;2022-11-15T11:50:00;100794.62;;;11.05;71.15
22572;BME280;11452;53.368;14.658;2022-11-15T11:55:14;100799.04;;;10.74;71.27
22572;BME280;11452;53.368;14.658;2022-11-15T12:00:23;100799.14;;;10.64;72.18
22572;BME280;11452;53.368;14.658;2022-11-15T12:05:37;100792.13;;;10.55;71.90
22572;BME280;11452;53.368;14.658;2022-11-15T12:10:45;100784.98;;;10.71;72.87
22572;BME280;11452;53.368;14.658;2022-11-15T12:16:06;100781.75;;;10.73;72.64
22572;BME280;11452;53.368;14.658;2022-11-15T12:21:44;100776.43;;;10.64;72.17
22572;BME280;11452;53.368;14.658;2022-11-15T12:26:50;100770.30;;;10.47;72.70
22572;BME280;11452;53.368;14.658;2022-11-15T12:31:56;100768.63;;;10.37;72.44
22572;BME280;11452;53.368;14.658;2022-11-15T12:47:37;100766.29;;;10.47;73.66
22572;BME280;11452;53.368;14.658;2022-11-15T13:04:07;100767.00;;;10.17;74.20
22572;BME280;11452;53.368;14.658;2022-11-15T13:08:47;100769.27;;;10.25;73.96
22572;BME280;11452;53.368;14.658;2022-11-15T13:13:54;100765.99;;;10.02;73.75
22572;BME280;11452;53.368;14.658;2022-11-15T13:18:59;100766.30;;;10.05;74.24
22572;BME280;11452;53.368;14.658;2022-11-15T13:24:17;100761.59;;;10.10;74.32
22572;BME280;11452;53.368;14.658;2022-11-15T13:29:19;100751.61;;;10.14;74.32
22572;BME280;11452;53.368;14.658;2022-11-15T13:34:30;100749.89;;;10.04;74.46
22572;BME280;11452;53.368;14.658;2022-11-15T13:39:35;100747.50;;;9.99;74.53
22572;BME280;11452;53.368;14.658;2022-11-15T13:50:03;100732.06;;;9.80;74.64
22572;BME280;11452;53.368;14.658;2022-11-15T13:55:13;100715.37;;;9.59;74.90
22572;BME280;11452;53.368;14.658;2022-11-15T14:00:35;100724.22;;;9.77;75.81
22572;BME280;11452;53.368;14.658;2022-11-15T14:05:41;100726.27;;;9.72;75.13
22572;BME280;11452;53.368;14.658;2022-11-15T14:10:47;100727.15;;;9.55;75.16
22572;BME280;11452;53.368;14.658;2022-11-15T14:15:52;100726.78;;;9.46;75.50
22572;BME280;11452;53.368;14.658;2022-11-15T14:21:08;100730.47;;;9.43;76.03
22572;BME280;11452;53.368;14.658;2022-11-15T14:26:31;100731.64;;;9.37;76.01
22572;BME280;11452;53.368;14.658;2022-11-15T14:31:37;100736.02;;;9.30;76.26
22572;BME280;11452;53.368;14.658;2022-11-15T14:36:46;100736.18;;;9.35;77.37
22572;BME280;11452;53.368;14.658;2022-11-15T14:41:51;100733.11;;;9.52;77.55
22572;BME280;11452;53.368;14.658;2022-11-15T14:46:57;100730.67;;;9.47;76.75
22572;BME280;11452;53.368;14.658;2022-11-15T14:52:04;100727.63;;;9.37;76.95
22572;BME280;11452;53.368;14.658;2022-11-15T14:57:09;100721.52;;;9.44;77.57
22572;BME280;11452;53.368;14.658;2022-11-15T15:02:24;100719.40;;;9.42;77.32
22572;BME280;11452;53.368;14.658;2022-11-15T15:07:24;100718.60;;;9.31;77.16
22572;BME280;11452;53.368;14.658;2022-11-15T15:12:29;100707.00;;;9.32;77.81
22572;BME280;11452;53.368;14.658;2022-11-15T15:17:35;100710.77;;;9.37;77.76
22572;BME280;11452;53.368;14.658;2022-11-15T15:22:40;100710.77;;;9.37;78.00
22572;BME280;11452;53.368;14.658;2022-11-15T15:27:47;100708.89;;;9.39;78.02
22572;BME280;11452;53.368;14.658;2022-11-15T15:32:53;100715.23;;;9.36;78.23
22572;BME280;11452;53.368;14.658;2022-11-15T15:37:58;100716.34;;;9.41;77.87
22572;BME280;11452;53.368;14.658;2022-11-15T15:43:04;100705.04;;;9.36;78.26
22572;BME280;11452;53.368;14.658;2022-11-15T15:48:16;100706.28;;;9.29;77.99
22572;BME280;11452;53.368;14.658;2022-11-15T15:53:21;100703.02;;;9.07;77.93
22572;BME280;11452;53.368;14.658;2022-11-15T15:58:27;100704.50;;;9.03;78.71
22572;BME280;11452;53.368;14.658;2022-11-15T16:03:33;100707.70;;;9.01;78.58
22572;BME280;11452;53.368;14.658;2022-11-15T16:08:38;100697.89;;;8.85;78.82
22572;BME280;11452;53.368;14.658;2022-11-15T16:13:45;100694.69;;;8.87;79.48
22572;BME280;11452;53.368;14.658;2022-11-15T16:18:51;100696.16;;;8.84;79.44
22572;BME280;11452;53.368;14.658;2022-11-15T16:23:57;100704.63;;;8.83;79.87
22572;BME280;11452;53.368;14.658;2022-11-15T16:29:04;100703.14;;;8.86;80.19
22572;BME280;11452;53.368;14.658;2022-11-15T16:34:11;100709.73;;;8.88;80.15
22572;BME280;11452;53.368;14.658;2022-11-15T16:39:16;100712.94;;;8.94;80.88
22572;BME280;11452;53.368;14.658;2022-11-15T16:44:23;100701.56;;;8.91;80.49
22572;BME280;11452;53.368;14.658;2022-11-15T16:49:28;100701.02;;;8.93;81.08
22572;BME280;11452;53.368;14.658;2022-11-15T16:54:34;100692.88;;;8.96;81.28
22572;BME280;11452;53.368;14.658;2022-11-15T16:59:39;100684.89;;;8.87;80.87
22572;BME280;11452;53.368;14.658;2022-11-15T17:04:46;100685.50;;;8.92;81.66
22572;BME280;11452;53.368;14.658;2022-11-15T17:09:51;100677.34;;;8.95;81.58
22572;BME280;11452;53.368;14.658;2022-11-15T17:14:57;100672.36;;;9.07;81.94
22572;BME280;11452;53.368;14.658;2022-11-15T17:20:02;100664.28;;;9.08;82.06
22572;BME280;11452;53.368;14.658;2022-11-15T17:25:13;100657.83;;;9.12;82.21
22572;BME280;11452;53.368;14.658;2022-11-15T17:30:18;100658.63;;;9.23;82.42
22572;BME280;11452;53.368;14.658;2022-11-15T17:35:24;100669.37;;;9.21;81.91
22572;BME280;11452;53.368;14.658;2022-11-15T17:40:29;100661.98;;;9.18;82.12
22572;BME280;11452;53.368;14.658;2022-11-15T17:45:39;100661.28;;;9.23;82.36
22572;BME280;11452;53.368;14.658;2022-11-15T17:50:43;100660.66;;;9.18;81.66
22572;BME280;11452;53.368;14.658;2022-11-15T17:55:51;100646.38;;;8.93;81.70
22572;BME280;11452;53.368;14.658;2022-11-15T18:01:15;100639.98;;;8.88;81.98
22572;BME280;11452;53.368;14.658;2022-11-15T18:06:21;100654.47;;;9.00;82.72
22572;BME280;11452;53.368;14.658;2022-11-15T18:11:29;100648.20;;;9.01;82.66
22572;BME280;11452;53.368;14.658;2022-11-15T18:16:36;100644.02;;;9.13;82.90
22572;BME280;11452;53.368;14.658;2022-11-15T18:21:44;100653.91;;;9.19;83.17
22572;BME280;11452;53.368;14.658;2022-11-15T18:27:07;100650.38;;;9.19;82.80
22572;BME280;11452;53.368;14.658;2022-11-15T18:32:12;100650.06;;;9.16;82.92
22572;BME280;11452;53.368;14.658;2022-11-15T18:37:19;100649.84;;;9.21;82.72
22572;BME280;11452;53.368;14.658;2022-11-15T18:42:25;100636.58;;;9.19;82.62
22572;BME280;11452;53.368;14.658;2022-11-15T18:47:30;100637.85;;;9.03;82.14
22572;BME280;11452;53.368;14.658;2022-11-15T18:52:36;100631.55;;;9.13;82.62
22572;BME280;11452;53.368;14.658;2022-11-15T18:57:41;100621.22;;;8.98;82.30
22572;BME280;11452;53.368;14.658;2022-11-15T19:02:46;100622.11;;;8.90;82.04
22572;BME280;11452;53.368;14.658;2022-11-15T19:07:52;100621.94;;;8.85;82.18
22572;BME280;11452;53.368;14.658;2022-11-15T19:12:57;100618.86;;;8.75;82.22
22572;BME280;11452;53.368;14.658;2022-11-15T19:18:03;100627.34;;;8.66;82.57
22572;BME280;11452;53.368;14.658;2022-11-15T19:23:08;100632.64;;;8.57;82.62
22572;BME280;11452;53.368;14.658;2022-11-15T19:28:14;100631.88;;;8.64;83.04
22572;BME280;11452;53.368;14.658;2022-11-15T19:33:19;100628.42;;;8.62;83.18
22572;BME280;11452;53.368;14.658;2022-11-15T19:38:29;100627.95;;;8.62;83.20
22572;BME280;11452;53.368;14.658;2022-11-15T19:43:35;100623.19;;;8.69;83.80
22572;BME280;11452;53.368;14.658;2022-11-15T19:48:41;100620.98;;;8.77;83.43
22572;BME280;11452;53.368;14.658;2022-11-15T19:53:48;100619.59;;;8.70;83.46
22572;BME280;11452;53.368;14.658;2022-11-15T19:58:55;100628.91;;;8.70;83.49
22572;BME280;11452;53.368;14.658;2022-11-15T20:04:01;100629.85;;;8.69;83.60
22572;BME280;11452;53.368;14.658;2022-11-15T20:09:09;100622.86;;;8.75;83.48
22572;BME280;11452;53.368;14.658;2022-11-15T20:14:14;100630.15;;;8.63;83.23
22572;BME280;11452;53.368;14.658;2022-11-15T20:19:21;100624.75;;;8.64;83.77
22572;BME280;11452;53.368;14.658;2022-11-15T20:24:26;100614.55;;;8.73;83.90
22572;BME280;11452;53.368;14.658;2022-11-15T20:29:32;100613.61;;;8.74;83.69
22572;BME280;11452;53.368;14.658;2022-11-15T20:34:37;100603.89;;;8.73;83.86
22572;BME280;11452;53.368;14.658;2022-11-15T20:39:43;100616.66;;;8.57;83.23
22572;BME280;11452;53.368;14.658;2022-11-15T20:44:48;100618.86;;;8.49;83.38
22572;BME280;11452;53.368;14.658;2022-11-15T20:49:54;100604.92;;;8.53;83.67
22572;BME280;11452;53.368;14.658;2022-11-15T20:55:01;100605.08;;;8.50;83.42
22572;BME280;11452;53.368;14.658;2022-11-15T21:00:08;100605.00;;;8.51;83.61
22572;BME280;11452;53.368;14.658;2022-11-15T21:05:13;100606.37;;;8.41;83.09
22572;BME280;11452;53.368;14.658;2022-11-15T21:10:19;100599.33;;;8.40;83.76
22572;BME280;11452;53.368;14.658;2022-11-15T21:15:42;100593.23;;;8.47;83.69
22572;BME280;11452;53.368;14.658;2022-11-15T21:20:48;100594.27;;;8.53;83.70
22572;BME280;11452;53.368;14.658;2022-11-15T21:25:53;100601.78;;;8.62;83.80
22572;BME280;11452;53.368;14.658;2022-11-15T21:30:59;100594.73;;;8.61;83.51
22572;BME280;11452;53.368;14.658;2022-11-15T21:36:06;100596.16;;;8.68;83.60
22572;BME280;11452;53.368;14.658;2022-11-15T21:41:11;100590.27;;;8.61;83.04
22572;BME280;11452;53.368;14.658;2022-11-15T21:46:17;100600.67;;;8.57;82.63
22572;BME280;11452;53.368;14.658;2022-11-15T21:51:23;100607.73;;;8.58;82.88
22572;BME280;11452;53.368;14.658;2022-11-15T21:56:29;100619.72;;;8.58;82.50
22572;BME280;11452;53.368;14.658;2022-11-15T22:01:35;100601.59;;;8.39;82.32
22572;BME280;11452;53.368;14.658;2022-11-15T22:06:59;100598.70;;;8.44;82.60
22572;BME280;11452;53.368;14.658;2022-11-15T22:12:05;100587.44;;;8.47;82.93
22572;BME280;11452;53.368;14.658;2022-11-15T22:17:10;100583.20;;;8.43;82.53
22572;BME280;11452;53.368;14.658;2022-11-15T22:22:16;100589.06;;;8.41;82.73
22572;BME280;11452;53.368;14.658;2022-11-15T22:27:21;100579.37;;;8.49;83.17
22572;BME280;11452;53.368;14.658;2022-11-15T22:32:27;100571.93;;;8.47;83.09
22572;BME280;11452;53.368;14.658;2022-11-15T22:37:32;100578.52;;;8.48;83.02
22572;BME280;11452;53.368;14.658;2022-11-15T22:42:38;100578.50;;;8.57;83.10
22572;BME280;11452;53.368;14.658;2022-11-15T22:47:43;100573.42;;;8.87;80.66
22572;BME280;11452;53.368;14.658;2022-11-15T22:52:49;100567.70;;;8.60;82.38
22572;BME280;11452;53.368;14.658;2022-11-15T22:57:55;100559.94;;;8.55;82.63
22572;BME280;11452;53.368;14.658;2022-11-15T23:03:01;100551.80;;;8.67;83.29
22572;BME280;11452;53.368;14.658;2022-11-15T23:08:07;100545.91;;;8.60;82.99
22572;BME280;11452;53.368;14.658;2022-11-15T23:13:13;100544.12;;;8.70;83.27
22572;BME280;11452;53.368;14.658;2022-11-15T23:18:22;100550.00;;;8.67;82.99
22572;BME280;11452;53.368;14.658;2022-11-15T23:23:27;100551.94;;;8.73;83.64
22572;BME280;11452;53.368;14.658;2022-11-15T23:28:34;100551.33;;;8.67;82.93
22572;BME280;11452;53.368;14.658;2022-11-15T23:33:39;100543.78;;;8.76;83.46
22572;BME280;11452;53.368;14.658;2022-11-15T23:39:03;100533.45;;;8.78;83.20
22572;BME280;11452;53.368;14.658;2022-11-15T23:44:10;100537.28;;;8.73;82.94
22572;BME280;11452;53.368;14.658;2022-11-15T23:49:16;100533.23;;;8.65;82.83
22572;BME280;11452;53.368;14.658;2022-11-15T23:54:21;100526.33;;;8.61;83.16
22572;BME280;11452;53.368;14.658;2022-11-15T23:59:27;100525.02;;;8.53;82.72
